createdAt,value
2023-04-14T00:00:06.478Z,3.20
2023-04-14T00:02:43.908Z,2.90
2023-04-14T00:05:12.938Z,3.10
2023-04-14T00:07:41.344Z,3.20
2023-04-14T00:10:10.230Z,3.10
2023-04-14T00:12:38.811Z,2.40
2023-04-14T00:15:08.206Z,3.30
2023-04-14T00:17:38.939Z,4.30
2023-04-14T00:20:09.388Z,2.80
2023-04-14T00:22:37.911Z,2.90
2023-04-14T00:25:06.830Z,4.30
2023-04-14T00:27:35.585Z,4.30
2023-04-14T00:30:05.560Z,3.00
2023-04-14T00:32:38.603Z,3.10
2023-04-14T00:35:07.239Z,2.70
2023-04-14T00:37:37.993Z,2.70
2023-04-14T00:40:11.354Z,4.00
2023-04-14T00:42:45.595Z,2.90
2023-04-14T00:45:14.739Z,2.90
2023-04-14T00:47:47.178Z,3.40
2023-04-14T00:50:18.140Z,3.30
2023-04-14T00:52:48.178Z,3.00
2023-04-14T00:55:19.081Z,4.40
2023-04-14T00:57:47.556Z,2.70
2023-04-14T01:00:16.422Z,4.30
2023-04-14T01:02:47.389Z,2.50
2023-04-14T01:05:16.716Z,2.90
2023-04-14T01:07:46.445Z,2.80
2023-04-14T01:10:16.005Z,3.70
2023-04-14T01:13:08.823Z,2.80
2023-04-14T01:15:44.107Z,3.00
2023-04-14T01:18:15.660Z,3.00
2023-04-14T01:20:45.901Z,3.60
2023-04-14T01:23:27.118Z,2.60
2023-04-14T01:26:11.338Z,3.20
2023-04-14T01:29:01.686Z,3.40
2023-04-14T01:31:34.817Z,3.10
2023-04-14T01:34:31.256Z,2.60
2023-04-14T01:37:15.241Z,7.20
2023-04-14T01:39:47.310Z,2.70
2023-04-14T01:42:17.736Z,2.70
2023-04-14T01:44:46.046Z,4.70
2023-04-14T01:47:15.083Z,2.60
2023-04-14T01:49:43.688Z,3.10
2023-04-14T01:52:11.970Z,3.90
2023-04-14T01:54:41.683Z,3.90
2023-04-14T01:57:11.450Z,3.50
2023-04-14T01:59:41.948Z,3.10
2023-04-14T02:02:12.458Z,3.00
2023-04-14T02:04:40.993Z,2.90
2023-04-14T02:07:10.937Z,4.00
2023-04-14T02:09:39.780Z,6.70
2023-04-14T02:12:08.384Z,3.50
2023-04-14T02:14:36.720Z,3.20
2023-04-14T02:17:05.989Z,3.20
2023-04-14T02:19:34.328Z,4.10
2023-04-14T02:22:03.578Z,4.50
2023-04-14T02:24:32.517Z,3.70
2023-04-14T02:27:09.257Z,3.00
2023-04-14T02:29:38.523Z,4.00
2023-04-14T02:32:09.901Z,4.10
2023-04-14T02:35:01.697Z,3.80
2023-04-14T02:37:37.289Z,4.60
2023-04-14T02:40:13.097Z,4.50
2023-04-14T02:42:41.880Z,5.40
2023-04-14T02:45:13.571Z,4.00
2023-04-14T02:47:47.456Z,3.50
2023-04-14T02:50:16.868Z,5.10
2023-04-14T02:52:51.855Z,6.30
2023-04-14T02:55:23.471Z,4.20
2023-04-14T02:57:54.241Z,3.60
2023-04-14T03:00:22.864Z,3.70
2023-04-14T03:02:53.698Z,3.30
2023-04-14T03:05:22.577Z,4.50
2023-04-14T03:07:56.796Z,5.90
2023-04-14T03:10:25.715Z,3.90
2023-04-14T03:12:54.624Z,5.50
2023-04-14T03:15:23.099Z,4.70
2023-04-14T03:17:54.510Z,3.90
2023-04-14T03:20:24.103Z,4.50
2023-04-14T03:23:06.386Z,4.00
2023-04-14T03:25:49.105Z,5.80
2023-04-14T03:28:25.648Z,3.80
2023-04-14T03:30:54.387Z,4.00
2023-04-14T03:33:29.813Z,3.70
2023-04-14T03:35:58.935Z,3.70
2023-04-14T03:38:28.486Z,3.70
2023-04-14T03:41:01.295Z,6.30
2023-04-14T03:43:29.778Z,3.40
2023-04-14T03:46:06.267Z,3.80
2023-04-14T03:48:35.756Z,3.80
2023-04-14T03:51:04.471Z,4.40
2023-04-14T03:53:35.029Z,5.50
2023-04-14T03:56:03.570Z,5.60
2023-04-14T03:58:35.082Z,4.30
2023-04-14T04:01:04.276Z,6.90
2023-04-14T04:03:35.640Z,4.00
2023-04-14T04:06:04.394Z,4.40
2023-04-14T04:08:32.901Z,4.30
2023-04-14T04:11:01.329Z,4.90
2023-04-14T04:13:29.945Z,4.60
2023-04-14T04:15:58.488Z,5.00
2023-04-14T04:18:27.505Z,4.50
2023-04-14T04:20:56.902Z,4.30
2023-04-14T04:23:26.116Z,5.20
2023-04-14T04:25:55.209Z,4.40
2023-04-14T04:28:42.218Z,8.10
2023-04-14T04:31:11.188Z,6.10
2023-04-14T04:33:39.506Z,6.80
2023-04-14T04:36:08.089Z,4.80
2023-04-14T04:38:43.157Z,5.20
2023-04-14T04:41:22.756Z,5.20
2023-04-14T04:43:51.731Z,7.00
2023-04-14T04:46:41.595Z,4.40
2023-04-14T04:51:10.832Z,6.10
2023-04-14T04:53:39.813Z,6.20
2023-04-14T04:56:08.463Z,5.40
2023-04-14T04:58:39.156Z,5.50
2023-04-14T05:01:11.016Z,5.90
2023-04-14T05:03:42.162Z,6.30
2023-04-14T05:06:10.466Z,5.80
2023-04-14T05:08:41.670Z,6.30
2023-04-14T05:11:12.636Z,6.60
2023-04-14T05:13:40.961Z,7.00
2023-04-14T05:16:11.689Z,7.10
2023-04-14T05:18:43.079Z,8.00
2023-04-14T05:21:15.766Z,6.50
2023-04-14T05:23:45.137Z,7.60
2023-04-14T05:28:48.630Z,7.60
2023-04-14T05:31:17.467Z,7.60
2023-04-14T05:33:46.303Z,7.70
2023-04-14T05:36:14.698Z,7.20
2023-04-14T05:38:43.537Z,6.90
2023-04-14T05:41:12.536Z,7.40
2023-04-14T05:43:43.191Z,7.90
2023-04-14T05:46:11.790Z,8.40
2023-04-14T05:48:41.733Z,7.40
2023-04-14T05:51:10.126Z,7.80
2023-04-14T05:53:38.839Z,7.60
2023-04-14T05:56:10.199Z,7.60
2023-04-14T05:58:38.590Z,8.60
2023-04-14T06:01:07.024Z,7.70
2023-04-14T06:03:40.223Z,8.70
2023-04-14T06:06:10.113Z,9.30
2023-04-14T06:08:39.364Z,8.00
2023-04-14T06:11:08.081Z,7.90
2023-04-14T06:13:36.893Z,8.80
2023-04-14T06:16:05.984Z,8.80
2023-04-14T06:18:35.458Z,8.50
2023-04-14T06:21:04.551Z,8.90
2023-04-14T06:23:32.967Z,8.40
2023-04-14T06:26:02.386Z,7.60
2023-04-14T06:28:34.252Z,8.10
2023-04-14T06:31:02.629Z,8.00
2023-04-14T06:33:31.881Z,24.00
2023-04-14T06:36:02.265Z,8.60
2023-04-14T06:38:31.813Z,8.50
2023-04-14T06:41:00.196Z,8.20
2023-04-14T06:43:29.216Z,8.30
2023-04-14T06:45:58.016Z,8.20
2023-04-14T06:48:27.571Z,9.60
2023-04-14T06:50:57.916Z,9.50
2023-04-14T06:53:26.670Z,8.50
2023-04-14T06:56:01.259Z,7.90
2023-04-14T06:58:31.290Z,7.40
2023-04-14T07:01:02.350Z,7.30
2023-04-14T07:03:31.906Z,9.00
2023-04-14T07:06:04.907Z,7.90
2023-04-14T07:08:35.122Z,8.90
2023-04-14T07:11:04.544Z,9.60
2023-04-14T07:13:34.569Z,12.80
2023-04-14T07:16:07.817Z,7.80
2023-04-14T07:18:36.862Z,8.40
2023-04-14T07:21:05.216Z,8.60
2023-04-14T07:23:34.338Z,8.00
2023-04-14T07:26:02.954Z,8.10
2023-04-14T07:28:32.688Z,7.80
2023-04-14T07:31:10.517Z,8.50
2023-04-14T07:33:40.534Z,8.80
2023-04-14T07:36:09.674Z,8.20
2023-04-14T07:38:38.191Z,8.90
2023-04-14T07:41:07.380Z,9.60
2023-04-14T07:43:36.160Z,7.80
2023-04-14T07:46:05.882Z,8.50
2023-04-14T07:48:35.863Z,8.50
2023-04-14T07:51:09.646Z,9.00
2023-04-14T07:53:43.863Z,8.90
2023-04-14T07:56:12.741Z,8.50
2023-04-14T07:58:43.010Z,10.20
2023-04-14T08:01:11.719Z,9.40
2023-04-14T08:03:43.562Z,8.30
2023-04-14T08:06:13.554Z,8.90
2023-04-14T08:08:43.567Z,7.80
2023-04-14T08:11:12.284Z,8.30
2023-04-14T08:13:41.329Z,10.00
2023-04-14T08:16:09.722Z,9.00
2023-04-14T08:18:40.474Z,7.70
2023-04-14T08:21:09.771Z,7.80
2023-04-14T08:23:39.057Z,8.10
2023-04-14T08:26:07.638Z,8.30
2023-04-14T08:28:37.318Z,8.30
2023-04-14T08:31:06.013Z,7.70
2023-04-14T08:33:35.066Z,8.30
2023-04-14T08:36:03.604Z,7.90
2023-04-14T08:38:36.535Z,8.70
2023-04-14T08:41:07.709Z,8.00
2023-04-14T08:43:36.516Z,8.40
2023-04-14T08:46:07.537Z,8.50
2023-04-14T08:48:36.817Z,9.20
2023-04-14T08:51:16.461Z,9.00
2023-04-14T08:53:46.079Z,8.10
2023-04-14T08:56:18.444Z,8.30
2023-04-14T08:58:47.634Z,9.40
2023-04-14T09:01:15.960Z,8.80
2023-04-14T09:03:46.116Z,8.90
2023-04-14T09:06:14.505Z,7.80
2023-04-14T09:08:49.140Z,8.00
2023-04-14T09:11:18.309Z,10.10
2023-04-14T09:13:47.711Z,8.50
2023-04-14T09:16:17.894Z,8.60
2023-04-14T09:18:47.749Z,8.70
2023-04-14T09:21:50.041Z,8.40
2023-04-14T09:24:11.564Z,10.00
2023-04-14T09:26:40.883Z,8.50
2023-04-14T09:29:09.181Z,9.50
2023-04-14T09:31:38.502Z,10.60
2023-04-14T09:34:15.844Z,8.40
2023-04-14T09:37:08.704Z,9.30
2023-04-14T09:39:48.181Z,8.20
2023-04-14T09:42:17.447Z,8.70
2023-04-14T09:44:55.145Z,9.80
2023-04-14T09:47:24.952Z,10.90
2023-04-14T09:49:59.947Z,9.20
2023-04-14T09:52:37.958Z,11.30
2023-04-14T09:55:15.404Z,9.50
2023-04-14T09:57:44.799Z,8.90
2023-04-14T10:00:16.628Z,9.30
2023-04-14T10:03:10.289Z,8.30
2023-04-14T10:05:39.775Z,8.70
2023-04-14T10:08:08.129Z,9.00
2023-04-14T10:10:36.664Z,8.40
2023-04-14T10:13:08.599Z,7.90
2023-04-14T10:15:41.978Z,7.90
2023-04-14T10:18:10.714Z,7.70
2023-04-14T10:20:44.613Z,7.50
2023-04-14T10:23:13.722Z,8.00
2023-04-14T10:25:42.745Z,8.10
2023-04-14T10:28:11.509Z,8.90
2023-04-14T10:30:40.325Z,8.10
2023-04-14T10:33:08.948Z,7.90
2023-04-14T10:35:43.179Z,8.10
2023-04-14T10:38:11.739Z,9.20
2023-04-14T10:40:47.164Z,7.60
2023-04-14T10:43:16.231Z,8.30
2023-04-14T10:45:55.186Z,8.00
2023-04-14T10:48:28.805Z,8.40
2023-04-14T10:50:59.388Z,8.60
2023-04-14T10:54:00.080Z,8.90
2023-04-14T10:56:29.419Z,10.10
2023-04-14T10:58:59.083Z,9.80
2023-04-14T11:01:31.677Z,7.90
2023-04-14T11:04:17.100Z,7.70
2023-04-14T11:06:47.665Z,8.10
2023-04-14T11:09:31.274Z,8.50
2023-04-14T11:12:04.442Z,9.40
2023-04-14T11:14:35.429Z,8.80
2023-04-14T11:17:05.338Z,10.30
2023-04-14T11:19:34.323Z,8.00
2023-04-14T11:22:02.611Z,9.00
2023-04-14T11:24:30.996Z,8.80
2023-04-14T11:27:00.317Z,6.90
2023-04-14T11:29:30.598Z,6.60
2023-04-14T11:32:05.908Z,8.30
2023-04-14T11:34:35.250Z,6.60
2023-04-14T11:37:04.350Z,6.00
2023-04-14T11:39:33.120Z,7.10
2023-04-14T11:42:01.467Z,6.60
2023-04-14T11:44:30.534Z,6.80
2023-04-14T11:46:58.913Z,6.90
2023-04-14T11:49:36.879Z,6.70
2023-04-14T11:52:08.237Z,7.00
2023-04-14T11:54:38.354Z,6.50
2023-04-14T11:57:12.328Z,6.90
2023-04-14T11:59:46.959Z,6.20
2023-04-14T12:02:20.796Z,6.20
2023-04-14T12:04:51.197Z,5.90
2023-04-14T12:07:20.266Z,5.60
2023-04-14T12:09:58.046Z,6.30
2023-04-14T12:12:29.077Z,6.20
2023-04-14T12:14:57.956Z,5.70
2023-04-14T12:17:32.268Z,6.00
2023-04-14T12:20:01.752Z,5.70
2023-04-14T12:22:30.421Z,5.40
2023-04-14T12:25:00.551Z,5.40
2023-04-14T12:27:29.024Z,5.00
2023-04-14T12:29:57.227Z,4.90
2023-04-14T12:32:30.966Z,5.70
2023-04-14T12:35:01.490Z,5.50
2023-04-14T12:37:30.309Z,5.80
2023-04-14T12:40:01.404Z,6.50
2023-04-14T12:42:49.321Z,5.10
2023-04-14T12:45:17.772Z,6.80
2023-04-14T12:47:55.736Z,4.90
2023-04-14T12:50:25.443Z,5.20
2023-04-14T12:52:55.689Z,6.00
2023-04-14T12:55:25.283Z,5.80
2023-04-14T12:57:54.469Z,7.70
2023-04-14T13:00:23.808Z,5.90
2023-04-14T13:02:52.516Z,5.70
2023-04-14T13:05:21.795Z,4.90
2023-04-14T13:07:51.198Z,5.30
2023-04-14T13:10:19.486Z,4.60
2023-04-14T13:12:47.907Z,5.50
2023-04-14T13:16:10.910Z,4.20
2023-04-14T13:18:07.104Z,5.80
2023-04-14T13:20:35.856Z,5.50
2023-04-14T13:23:04.335Z,5.40
2023-04-14T13:25:33.186Z,7.70
2023-04-14T13:28:01.570Z,5.40
2023-04-14T13:30:35.249Z,5.30
2023-04-14T13:33:04.252Z,6.40
2023-04-14T13:35:32.677Z,6.00
2023-04-14T13:38:02.188Z,5.80
2023-04-14T13:40:31.154Z,8.00
2023-04-14T13:43:02.050Z,5.10
2023-04-14T13:45:31.068Z,6.70
2023-04-14T13:48:00.190Z,5.50
2023-04-14T13:50:28.705Z,5.10
2023-04-14T13:52:57.296Z,4.90
2023-04-14T13:55:26.669Z,5.20
2023-04-14T13:57:55.392Z,5.10
2023-04-14T14:00:23.920Z,5.00
2023-04-14T14:02:54.357Z,4.80
2023-04-14T14:05:22.777Z,5.30
2023-04-14T14:07:51.213Z,5.60
2023-04-14T14:10:20.185Z,5.00
2023-04-14T14:12:50.125Z,5.10
2023-04-14T14:15:18.529Z,4.80
2023-04-14T14:17:48.725Z,5.90
2023-04-14T14:20:17.541Z,5.10
2023-04-14T14:22:46.262Z,4.80
2023-04-14T14:25:21.033Z,6.80
2023-04-14T14:27:52.101Z,5.20
2023-04-14T14:30:20.561Z,6.30
2023-04-14T14:32:49.097Z,5.40
2023-04-14T14:35:17.755Z,4.90
2023-04-14T14:37:46.221Z,5.00
2023-04-14T14:40:14.467Z,4.30
2023-04-14T14:42:42.943Z,4.30
2023-04-14T14:45:11.544Z,4.20
2023-04-14T14:47:41.654Z,4.80
2023-04-14T14:50:10.893Z,4.60
2023-04-14T14:52:39.278Z,6.20
2023-04-14T14:55:08.624Z,5.00
2023-04-14T14:57:36.926Z,4.70
2023-04-14T15:00:08.036Z,6.30
2023-04-14T15:02:38.969Z,5.10
2023-04-14T15:05:08.234Z,3.90
2023-04-14T15:07:36.494Z,4.30
2023-04-14T15:10:05.934Z,4.10
2023-04-14T15:12:36.707Z,4.70
2023-04-14T15:15:06.488Z,4.70
2023-04-14T15:17:35.258Z,4.20
2023-04-14T15:20:08.489Z,4.30
2023-04-14T15:22:36.831Z,4.70
2023-04-14T15:25:06.185Z,3.60
2023-04-14T15:27:36.998Z,4.80
2023-04-14T15:30:06.092Z,4.70
2023-04-14T15:32:34.982Z,3.80
2023-04-14T15:35:04.828Z,3.80
2023-04-14T15:37:33.156Z,4.30
2023-04-14T15:40:01.703Z,4.90
2023-04-14T15:42:32.256Z,3.70
2023-04-14T15:45:00.887Z,6.00
2023-04-14T15:47:29.525Z,3.90
2023-04-14T15:50:09.112Z,5.90
2023-04-14T15:52:39.968Z,4.80
2023-04-14T15:55:09.366Z,5.20
2023-04-14T15:57:40.936Z,4.70
2023-04-14T16:00:09.981Z,5.80
2023-04-14T16:02:43.457Z,3.90
2023-04-14T16:05:16.761Z,3.60
2023-04-14T16:07:46.499Z,4.10
2023-04-14T16:10:15.800Z,4.20
2023-04-14T16:12:44.719Z,4.10
2023-04-14T16:15:14.075Z,4.30
2023-04-14T16:17:43.786Z,4.60
2023-04-14T16:20:15.296Z,3.10
2023-04-14T16:22:43.545Z,3.70
2023-04-14T16:25:12.315Z,3.50
2023-04-14T16:27:41.260Z,3.50
2023-04-14T16:30:12.577Z,3.40
2023-04-14T16:32:51.404Z,5.10
2023-04-14T16:35:19.797Z,3.80
2023-04-14T16:37:49.333Z,3.50
2023-04-14T16:40:17.929Z,4.40
2023-04-14T16:42:47.537Z,5.20
2023-04-14T16:45:19.216Z,7.40
2023-04-14T16:47:49.565Z,5.80
2023-04-14T16:50:18.088Z,5.50
2023-04-14T16:52:50.654Z,3.70
2023-04-14T16:55:19.231Z,4.00
2023-04-14T16:57:47.709Z,5.20
2023-04-14T17:00:17.952Z,5.20
2023-04-14T17:02:47.402Z,4.30
2023-04-14T17:07:24.509Z,5.80
2023-04-14T17:09:53.098Z,3.70
2023-04-14T17:12:22.465Z,5.00
2023-04-14T17:14:52.986Z,4.60
2023-04-14T17:17:21.620Z,4.30
2023-04-14T17:19:50.173Z,4.50
2023-04-14T17:22:18.619Z,3.70
2023-04-14T17:24:47.011Z,4.30
2023-04-14T17:27:16.327Z,3.90
2023-04-14T17:29:44.689Z,4.30
2023-04-14T17:32:13.104Z,3.90
2023-04-14T17:34:41.882Z,4.20
2023-04-14T17:37:10.408Z,4.80
2023-04-14T17:39:39.463Z,8.60
2023-04-14T17:42:07.740Z,4.20
2023-04-14T17:44:36.513Z,4.60
2023-04-14T17:47:13.190Z,3.50
2023-04-14T17:49:44.237Z,4.00
2023-04-14T17:52:20.857Z,4.00
2023-04-14T17:54:50.665Z,5.10
2023-04-14T17:57:18.952Z,4.30
2023-04-14T17:59:48.728Z,3.40
2023-04-14T18:02:17.426Z,3.80
2023-04-14T18:04:47.466Z,3.60
2023-04-14T18:07:15.689Z,3.90
2023-04-14T18:09:46.716Z,3.50
2023-04-14T18:12:15.298Z,3.90
2023-04-14T18:14:44.760Z,5.90
2023-04-14T18:17:13.232Z,4.30
2023-04-14T18:19:43.110Z,4.10
2023-04-14T18:22:11.451Z,3.70
2023-04-14T18:29:43.857Z,3.00
2023-04-14T18:32:12.110Z,4.70
2023-04-14T18:34:41.019Z,3.30
2023-04-14T18:37:10.493Z,4.60
2023-04-14T18:39:38.686Z,3.40
2023-04-14T18:42:07.054Z,3.80
2023-04-14T18:44:35.810Z,3.90
2023-04-14T18:47:04.200Z,5.30
2023-04-14T18:49:32.468Z,4.30
2023-04-14T18:52:00.880Z,3.90
2023-04-14T18:54:29.747Z,3.70
2023-04-14T18:56:58.247Z,3.70
2023-04-14T18:59:27.955Z,4.00
2023-04-14T19:01:58.525Z,4.00
2023-04-14T19:04:26.961Z,3.30
2023-04-14T19:06:55.776Z,4.90
2023-04-14T19:09:24.814Z,3.40
2023-04-14T19:11:58.542Z,7.00
2023-04-14T19:14:27.747Z,3.20
2023-04-14T19:16:56.040Z,11.30
2023-04-14T19:19:33.456Z,4.10
2023-04-14T19:22:01.964Z,4.30
2023-04-14T19:24:31.604Z,3.50
2023-04-14T19:26:59.922Z,3.80
2023-04-14T19:29:30.156Z,4.50
2023-04-14T19:31:58.522Z,5.30
2023-04-14T19:34:28.943Z,3.10
2023-04-14T19:36:57.747Z,3.60
2023-04-14T19:39:26.140Z,3.10
2023-04-14T19:41:54.804Z,6.40
2023-04-14T19:44:23.924Z,3.10
2023-04-14T19:46:52.656Z,3.00
2023-04-14T19:49:23.085Z,4.50
2023-04-14T19:51:51.679Z,3.40
2023-04-14T19:54:20.514Z,5.10
2023-04-14T19:56:50.221Z,8.30
2023-04-14T19:59:19.233Z,3.20
2023-04-14T20:01:51.742Z,2.90
2023-04-14T20:04:20.965Z,3.50
2023-04-14T20:06:49.438Z,2.90
2023-04-14T20:09:18.673Z,3.30
2023-04-14T20:11:48.091Z,3.50
2023-04-14T20:14:16.527Z,3.00
2023-04-14T20:16:49.347Z,3.10
2023-04-14T20:19:18.118Z,3.40
2023-04-14T20:21:46.658Z,3.10
2023-04-14T20:24:14.961Z,3.20
2023-04-14T20:26:45.195Z,2.80
2023-04-14T20:29:13.429Z,2.90
2023-04-14T20:31:42.997Z,2.90
2023-04-14T20:34:11.754Z,3.10
2023-04-14T20:36:40.693Z,4.10
2023-04-14T20:39:09.260Z,3.30
2023-04-14T20:41:37.800Z,2.40
2023-04-14T20:44:06.566Z,2.70
2023-04-14T20:46:35.078Z,3.80
2023-04-14T20:49:04.601Z,2.60
2023-04-14T20:51:34.249Z,4.30
2023-04-14T20:54:03.129Z,3.60
2023-04-14T20:56:35.296Z,2.90
2023-04-14T20:59:04.132Z,2.60
2023-04-14T21:01:32.819Z,2.90
2023-04-14T21:04:01.393Z,3.20
2023-04-14T21:06:32.769Z,2.40
2023-04-14T21:09:01.854Z,3.00
2023-04-14T21:11:30.604Z,2.60
2023-04-14T21:15:39.798Z,3.40
2023-04-14T21:16:47.811Z,3.40
2023-04-14T21:19:16.648Z,4.20
2023-04-14T21:21:49.920Z,3.80
2023-04-14T21:24:19.471Z,4.90
2023-04-14T21:26:47.917Z,2.50
2023-04-14T21:29:16.243Z,2.90
2023-04-14T21:31:45.691Z,2.40
2023-04-14T21:34:14.470Z,4.00
2023-04-14T21:36:44.299Z,3.10
2023-04-14T21:39:13.654Z,2.70
2023-04-14T21:41:42.217Z,2.80
2023-04-14T21:44:10.542Z,3.00
2023-04-14T21:46:38.806Z,2.50
2023-04-14T21:49:08.324Z,4.80
2023-04-14T21:51:36.757Z,3.10
2023-04-14T21:54:05.380Z,2.70
2023-04-14T21:56:33.874Z,2.80
2023-04-14T21:59:02.393Z,2.90
2023-04-14T22:01:34.217Z,2.30
2023-04-14T22:04:03.252Z,5.20
2023-04-14T22:06:33.678Z,4.10
2023-04-14T22:09:10.321Z,3.20
2023-04-14T22:11:38.895Z,3.90
2023-04-14T22:14:07.490Z,2.60
2023-04-14T22:16:38.573Z,4.30
2023-04-14T22:19:09.130Z,6.90
2023-04-14T22:21:38.052Z,5.70
2023-04-14T22:24:07.388Z,2.60
2023-04-14T22:26:36.599Z,2.80
2023-04-14T22:29:04.990Z,8.90
2023-04-14T22:31:33.540Z,3.60
2023-04-14T22:34:03.036Z,2.70
2023-04-14T22:36:31.807Z,3.30
2023-04-14T22:39:00.286Z,3.50
2023-04-14T22:41:30.613Z,4.40
2023-04-14T22:43:59.358Z,2.70
2023-04-14T22:46:31.173Z,3.00
2023-04-14T22:48:59.942Z,3.10
2023-04-14T22:51:28.584Z,2.90
2023-04-14T22:53:59.843Z,3.50
2023-04-14T22:56:28.469Z,2.40
2023-04-14T22:58:57.811Z,2.70
2023-04-14T23:01:29.487Z,2.60
2023-04-14T23:03:58.147Z,2.70
2023-04-14T23:06:26.469Z,2.40
2023-04-14T23:08:59.754Z,2.20
2023-04-14T23:11:28.590Z,4.90
2023-04-14T23:13:57.439Z,2.70
2023-04-14T23:16:28.297Z,2.60
2023-04-14T23:19:07.256Z,3.10
2023-04-14T23:21:35.780Z,2.80
2023-04-14T23:24:04.649Z,3.10
2023-04-14T23:26:38.857Z,2.50
2023-04-14T23:29:07.227Z,4.40
2023-04-14T23:31:36.014Z,3.10
2023-04-14T23:34:07.817Z,3.30
2023-04-14T23:36:37.186Z,2.80
2023-04-14T23:39:05.917Z,3.50
2023-04-14T23:41:36.784Z,2.30
2023-04-14T23:44:05.281Z,3.40
2023-04-14T23:46:34.268Z,2.70
2023-04-14T23:49:23.836Z,2.60
2023-04-14T23:51:53.419Z,2.50
2023-04-14T23:54:21.791Z,3.30
2023-04-14T23:56:50.076Z,2.90
2023-04-14T23:59:19.102Z,2.80
